Terminal Aerodrome Forecast
Issued by NWS

Home | Current Version | Previous Version | Text Only | Print | Product List | Glossary On
Versions: 1 2 3 4 5 6 7 8 9 10 11 12 13 14 15 16 17 18 19 20 21 22 23 24 25 26
483
FTUS43 KDLH 261130
TAFBRD
TAF
KBRD 261130Z 2612/2712 25005KT 4SM -SN BKN012 OVC025
      TEMPO 2612/2614 1SM -SN BR BKN004 OVC012
     FM261500 33007KT P6SM SCT012 BKN025
     FM261800 30010KT P6SM SCT025
     FM270000 28004KT P6SM SCT025 BKN100
     FM270600 16004KT P6SM BKN040=

USA.gov is the U.S. government's official web portal to all federal, state and local government web resources and services.